createdAt,value
2019-04-06T00:00:37.574Z,75.33
2019-04-06T00:03:09.946Z,79.27
2019-04-06T00:05:42.319Z,76.03
2019-04-06T00:08:15.270Z,73.63
2019-04-06T00:10:47.741Z,71.87
2019-04-06T00:13:21.376Z,74.20
2019-04-06T00:15:54.260Z,73.87
2019-04-06T00:18:26.665Z,80.20
2019-04-06T00:20:59.624Z,77.43
2019-04-06T00:23:31.616Z,76.53
2019-04-06T00:26:04.471Z,69.83
2019-04-06T00:28:36.520Z,64.87
2019-04-06T00:31:33.071Z,61.17
2019-04-06T00:34:08.226Z,58.57
2019-04-06T00:36:42.182Z,56.63
2019-04-06T00:39:15.019Z,56.67
2019-04-06T00:41:48.401Z,56.20
2019-04-06T00:44:20.093Z,56.35
2019-04-06T00:46:53.312Z,56.85
2019-04-06T00:49:28.877Z,54.88
2019-04-06T00:52:01.637Z,58.23
2019-04-06T00:54:33.673Z,58.10
2019-04-06T00:57:06.921Z,58.85
2019-04-06T00:59:40.452Z,59.25
2019-04-06T01:02:11.974Z,61.13
2019-04-06T01:04:49.127Z,59.83
2019-04-06T01:07:23.256Z,62.88
2019-04-06T01:10:13.827Z,65.32
2019-04-06T01:12:45.855Z,62.35
2019-04-06T01:15:19.076Z,61.23
2019-04-06T01:17:52.693Z,63.28
2019-04-06T01:20:25.852Z,64.45
2019-04-06T01:22:57.905Z,66.37
2019-04-06T01:25:40.705Z,65.15
2019-04-06T01:28:12.680Z,65.57
2019-04-06T01:30:45.065Z,84.85
2019-04-06T01:33:17.576Z,70.60
2019-04-06T01:35:49.544Z,93.92
2019-04-06T01:38:21.580Z,79.77
2019-04-06T01:40:54.545Z,78.92
2019-04-06T01:43:45.265Z,83.40
2019-04-06T01:46:17.770Z,82.33
2019-04-06T01:48:49.920Z,84.45
2019-04-06T01:51:21.617Z,87.95
2019-04-06T01:53:55.698Z,87.17
2019-04-06T01:56:28.253Z,67.15
2019-04-06T01:58:59.760Z,64.07
2019-04-06T02:01:45.149Z,63.15
2019-04-06T02:04:18.645Z,64.05
2019-04-06T02:06:51.139Z,62.38
2019-04-06T02:09:23.002Z,59.83
2019-04-06T02:11:54.603Z,59.93
2019-04-06T02:14:26.225Z,61.18
2019-04-06T02:16:58.271Z,59.40
2019-04-06T02:19:30.512Z,59.18
2019-04-06T02:22:03.020Z,60.05
2019-04-06T02:24:35.696Z,58.50
2019-04-06T02:27:07.699Z,61.47
2019-04-06T02:29:39.199Z,62.80
2019-04-06T02:32:29.105Z,63.78
2019-04-06T02:35:19.312Z,64.45
2019-04-06T02:38:16.172Z,64.62
2019-04-06T02:41:05.129Z,63.38
2019-04-06T02:43:38.365Z,65.00
2019-04-06T02:46:10.766Z,74.00
2019-04-06T02:48:43.329Z,72.78
2019-04-06T02:51:15.228Z,73.75
2019-04-06T02:53:47.187Z,74.47
2019-04-06T02:56:19.747Z,73.70
2019-04-06T02:58:51.811Z,67.10
2019-04-06T03:01:24.587Z,69.55
2019-04-06T03:03:57.611Z,70.30
2019-04-06T03:06:29.286Z,71.07
2019-04-06T03:09:01.509Z,65.12
2019-04-06T03:11:53.739Z,68.28
2019-04-06T03:14:25.926Z,73.90
2019-04-06T03:16:58.179Z,71.45
2019-04-06T03:19:29.913Z,70.42
2019-04-06T03:22:01.434Z,69.55
2019-04-06T03:24:33.911Z,76.47
2019-04-06T03:27:05.905Z,78.07
2019-04-06T03:29:37.951Z,76.60
2019-04-06T03:32:09.992Z,76.10
2019-04-06T03:34:43.396Z,71.77
2019-04-06T03:37:16.159Z,70.00
2019-04-06T03:39:48.577Z,64.30
2019-04-06T03:42:21.733Z,61.70
2019-04-06T03:44:56.069Z,63.25
2019-04-06T03:47:28.008Z,65.10
2019-04-06T03:50:10.745Z,62.45
2019-04-06T03:52:42.836Z,64.05
2019-04-06T03:55:14.913Z,67.17
2019-04-06T03:57:46.855Z,66.53
2019-04-06T04:00:18.648Z,66.00
2019-04-06T04:02:50.157Z,75.37
2019-04-06T04:05:22.935Z,76.85
2019-04-06T04:07:55.760Z,135.43
2019-04-06T04:10:39.646Z,82.25
2019-04-06T04:13:13.197Z,76.28
2019-04-06T04:15:46.436Z,80.55
2019-04-06T04:18:19.467Z,77.55
2019-04-06T04:20:51.052Z,78.95
2019-04-06T04:23:23.196Z,77.60
2019-04-06T04:25:56.244Z,69.60
2019-04-06T04:28:28.345Z,72.22
2019-04-06T04:31:02.130Z,72.62
2019-04-06T04:33:35.248Z,71.22
2019-04-06T04:36:07.282Z,67.75
2019-04-06T04:38:40.553Z,66.13
2019-04-06T04:41:13.087Z,60.35
2019-04-06T04:43:45.330Z,55.83
2019-04-06T04:46:17.718Z,54.17
2019-04-06T04:48:50.219Z,51.30
2019-04-06T04:51:23.147Z,49.30
2019-04-06T04:53:56.116Z,48.03
2019-04-06T04:56:28.076Z,50.40
2019-04-06T04:59:01.228Z,50.10
2019-04-06T05:01:34.437Z,49.07
2019-04-06T05:04:06.803Z,51.77
2019-04-06T05:06:40.275Z,51.57
2019-04-06T05:09:12.649Z,49.40
2019-04-06T05:11:45.766Z,48.87
2019-04-06T05:14:53.154Z,49.07
2019-04-06T05:17:26.152Z,51.80
2019-04-06T05:19:59.063Z,53.20
2019-04-06T05:22:31.512Z,56.17
2019-04-06T05:25:04.713Z,61.33
2019-04-06T05:27:38.093Z,63.20
2019-04-06T05:30:12.742Z,67.10
2019-04-06T05:32:47.201Z,76.10
2019-04-06T05:35:19.291Z,78.30
2019-04-06T05:37:51.646Z,75.30
2019-04-06T05:40:25.300Z,78.67
2019-04-06T05:42:57.795Z,76.73
2019-04-06T05:45:42.348Z,73.70
2019-04-06T05:48:14.924Z,74.43
2019-04-06T05:50:47.211Z,68.93
2019-04-06T05:53:21.186Z,66.67
2019-04-06T05:55:54.533Z,64.63
2019-04-06T05:58:28.240Z,62.07
2019-04-06T06:01:00.242Z,62.57
2019-04-06T06:03:32.203Z,61.57
2019-04-06T06:06:04.705Z,58.57
2019-04-06T06:08:38.623Z,55.97
2019-04-06T06:11:11.200Z,53.27
2019-04-06T06:13:44.065Z,50.63
2019-04-06T06:16:16.275Z,51.10
2019-04-06T06:18:48.853Z,49.30
2019-04-06T06:21:23.024Z,49.10
2019-04-06T06:23:55.301Z,46.13
2019-04-06T06:26:29.025Z,45.07
2019-04-06T06:29:02.437Z,47.33
2019-04-06T06:31:36.218Z,43.73
2019-04-06T06:34:11.581Z,46.57
2019-04-06T06:36:44.603Z,45.17
2019-04-06T06:39:17.596Z,46.53
2019-04-06T06:41:51.593Z,46.27
2019-04-06T06:44:25.028Z,46.00
2019-04-06T06:46:58.111Z,43.67
2019-04-06T06:49:31.057Z,41.43
2019-04-06T06:52:03.981Z,40.50
2019-04-06T06:54:36.839Z,41.83
2019-04-06T06:57:10.009Z,44.07
2019-04-06T06:59:42.259Z,44.87
2019-04-06T07:02:14.849Z,45.90
2019-04-06T07:04:50.345Z,46.57
2019-04-06T07:07:24.267Z,48.63
2019-04-06T07:10:05.069Z,46.17
2019-04-06T07:12:34.245Z,44.20
2019-04-06T07:15:07.608Z,49.20
2019-04-06T07:17:40.008Z,49.80
2019-04-06T07:20:13.552Z,51.67
2019-04-06T07:22:45.747Z,53.73
2019-04-06T07:25:18.195Z,50.00
2019-04-06T07:27:50.600Z,50.40
2019-04-06T07:30:25.755Z,50.63
2019-04-06T07:32:58.603Z,53.77
2019-04-06T07:35:32.740Z,54.37
2019-04-06T07:38:06.340Z,55.33
2019-04-06T07:40:38.912Z,56.90
2019-04-06T07:43:12.004Z,57.73
2019-04-06T07:45:46.794Z,52.60
2019-04-06T07:48:20.062Z,53.63
2019-04-06T07:50:53.892Z,52.27
2019-04-06T07:53:26.591Z,52.27
2019-04-06T07:55:59.849Z,51.17
2019-04-06T07:58:33.361Z,49.47
2019-04-06T08:01:06.906Z,48.53
2019-04-06T08:03:41.576Z,48.50
2019-04-06T08:06:15.621Z,51.20
2019-04-06T08:08:49.194Z,47.97
2019-04-06T08:11:22.405Z,47.53
2019-04-06T08:13:56.839Z,46.10
2019-04-06T08:16:30.428Z,46.07
2019-04-06T08:19:03.303Z,46.97
2019-04-06T08:21:37.397Z,46.67
2019-04-06T08:24:11.237Z,47.10
2019-04-06T08:26:46.638Z,45.60
2019-04-06T08:29:23.574Z,44.57
2019-04-06T08:31:56.953Z,47.70
2019-04-06T08:34:31.246Z,50.80
2019-04-06T08:37:05.981Z,51.00
2019-04-06T08:39:39.462Z,52.90
2019-04-06T08:42:13.684Z,55.90
2019-04-06T08:44:47.822Z,56.03
2019-04-06T08:47:21.008Z,58.27
2019-04-06T08:49:54.000Z,57.70
2019-04-06T08:52:27.881Z,55.67
2019-04-06T08:55:00.263Z,56.83
2019-04-06T08:57:43.736Z,56.20
2019-04-06T09:00:16.731Z,55.67
2019-04-06T09:02:49.795Z,58.50
2019-04-06T09:05:24.360Z,57.23
2019-04-06T09:07:57.500Z,59.37
2019-04-06T09:10:31.787Z,59.50
2019-04-06T09:13:05.457Z,59.57
2019-04-06T09:15:39.477Z,70.07
2019-04-06T09:18:11.986Z,60.37
2019-04-06T09:20:45.806Z,58.90
2019-04-06T09:23:19.469Z,58.27
2019-04-06T09:25:52.733Z,60.37
2019-04-06T09:28:25.616Z,59.20
2019-04-06T09:30:58.625Z,58.57
2019-04-06T09:33:32.432Z,60.67
2019-04-06T09:36:30.236Z,58.80
2019-04-06T09:39:05.894Z,56.50
2019-04-06T09:41:41.355Z,57.37
2019-04-06T09:44:48.145Z,57.27
2019-04-06T09:47:51.744Z,56.67
2019-04-06T09:51:04.400Z,60.13
2019-04-06T09:54:06.195Z,60.27
2019-04-06T09:56:54.027Z,55.50
2019-04-06T09:59:56.071Z,56.80
2019-04-06T10:02:50.079Z,55.73
2019-04-06T10:05:32.952Z,54.33
2019-04-06T10:08:27.784Z,54.50
2019-04-06T10:11:21.256Z,53.17
2019-04-06T10:14:24.625Z,54.90
2019-04-06T10:17:21.036Z,51.20
2019-04-06T10:20:11.595Z,50.83
2019-04-06T10:23:03.419Z,48.27
2019-04-06T10:25:53.700Z,50.93
2019-04-06T10:28:45.101Z,49.90
2019-04-06T10:31:38.631Z,51.87
2019-04-06T10:34:36.084Z,51.90
2019-04-06T10:37:25.883Z,51.80
2019-04-06T10:40:08.684Z,51.37
2019-04-06T10:43:12.433Z,54.93
2019-04-06T10:45:53.226Z,52.47
2019-04-06T10:48:43.175Z,53.50
2019-04-06T10:51:46.893Z,53.67
2019-04-06T10:54:48.248Z,52.17
2019-04-06T10:57:39.713Z,49.97
2019-04-06T11:00:40.890Z,48.93
2019-04-06T11:03:41.093Z,45.77
2019-04-06T11:06:29.573Z,46.47
2019-04-06T11:09:19.665Z,47.43
2019-04-06T11:12:20.075Z,44.80
2019-04-06T11:15:10.516Z,44.00
2019-04-06T11:18:06.122Z,44.60
2019-04-06T11:20:49.965Z,43.63
2019-04-06T11:23:41.158Z,44.37
2019-04-06T11:26:36.365Z,43.80
2019-04-06T11:29:27.353Z,43.67
2019-04-06T11:32:21.957Z,43.63
2019-04-06T11:35:20.389Z,41.37
2019-04-06T11:38:01.991Z,42.47
2019-04-06T11:40:45.738Z,42.13
2019-04-06T11:43:50.167Z,42.40
2019-04-06T11:46:27.654Z,41.73
2019-04-06T11:49:11.817Z,43.47
2019-04-06T11:51:58.981Z,42.90
2019-04-06T11:54:49.274Z,42.97
2019-04-06T11:57:41.725Z,42.57
2019-04-06T12:00:39.519Z,42.73
2019-04-06T12:03:30.603Z,43.47
2019-04-06T12:06:20.641Z,42.07
2019-04-06T12:09:22.598Z,42.67
2019-04-06T12:12:07.107Z,40.93
2019-04-06T12:14:52.321Z,40.53
2019-04-06T12:17:55.063Z,38.67
2019-04-06T12:21:01.611Z,38.87
2019-04-06T12:24:08.216Z,39.97
2019-04-06T12:27:18.494Z,41.70
2019-04-06T12:30:14.182Z,41.27
2019-04-06T12:33:09.457Z,39.40
2019-04-06T12:35:59.224Z,39.43
2019-04-06T12:38:52.228Z,39.93
2019-04-06T12:41:52.327Z,40.17
2019-04-06T12:44:44.203Z,48.43
2019-04-06T12:47:34.252Z,55.97
2019-04-06T12:50:27.356Z,47.67
2019-04-06T12:53:17.527Z,43.00
2019-04-06T12:56:09.270Z,42.27
2019-04-06T12:59:04.146Z,43.07
2019-04-06T13:01:58.004Z,42.00
2019-04-06T13:04:59.372Z,40.47
2019-04-06T13:07:44.654Z,42.10
2019-04-06T13:10:36.180Z,39.30
2019-04-06T13:13:26.736Z,39.50
2019-04-06T13:16:21.099Z,39.30
2019-04-06T13:19:08.445Z,38.93
2019-04-06T13:21:57.408Z,38.30
2019-04-06T13:24:38.142Z,41.07
2019-04-06T13:27:25.332Z,42.43
2019-04-06T13:30:22.528Z,37.87
2019-04-06T13:33:14.947Z,37.53
2019-04-06T13:36:05.430Z,39.43
2019-04-06T13:38:59.162Z,45.10
2019-04-06T13:41:58.587Z,37.53
2019-04-06T13:45:02.604Z,41.97
2019-04-06T13:47:43.407Z,39.00
2019-04-06T13:50:50.458Z,38.67
2019-04-06T13:53:36.851Z,38.50
2019-04-06T13:56:28.611Z,42.17
2019-04-06T13:59:18.643Z,43.13
2019-04-06T14:02:29.360Z,36.10
2019-04-06T14:05:23.006Z,36.37
2019-04-06T14:08:17.198Z,37.03
2019-04-06T14:11:20.017Z,36.93
2019-04-06T14:14:12.678Z,37.53
2019-04-06T14:17:13.662Z,37.90
2019-04-06T14:20:07.025Z,34.23
2019-04-06T14:22:58.093Z,36.67
2019-04-06T14:26:06.949Z,40.07
2019-04-06T14:28:57.253Z,41.47
2019-04-06T14:32:06.620Z,38.17
2019-04-06T14:35:04.548Z,33.20
2019-04-06T14:37:55.240Z,34.03
2019-04-06T14:40:46.315Z,44.37
2019-04-06T14:43:37.719Z,46.20
2019-04-06T14:46:23.268Z,36.27
2019-04-06T14:49:27.561Z,42.47
2019-04-06T14:52:06.824Z,44.37
2019-04-06T14:55:07.017Z,38.87
2019-04-06T14:58:01.489Z,33.23
2019-04-06T15:00:53.234Z,33.33
2019-04-06T15:03:42.864Z,50.20
2019-04-06T15:06:32.514Z,44.00
2019-04-06T15:09:14.809Z,63.53
2019-04-06T15:12:08.105Z,59.83
2019-04-06T15:15:05.314Z,34.77
2019-04-06T15:17:51.172Z,33.43
2019-04-06T15:20:48.449Z,35.47
2019-04-06T15:23:46.592Z,30.10
2019-04-06T15:26:46.617Z,29.57
2019-04-06T15:29:35.332Z,29.57
2019-04-06T15:32:26.774Z,29.03
2019-04-06T15:35:22.029Z,28.07
2019-04-06T15:38:04.293Z,29.57
2019-04-06T15:40:56.856Z,28.93
2019-04-06T15:43:48.195Z,31.27
2019-04-06T15:46:39.224Z,30.17
2019-04-06T15:49:39.629Z,29.33
2019-04-06T15:52:33.356Z,29.13
2019-04-06T15:55:27.761Z,29.40
2019-04-06T15:58:21.066Z,28.83
2019-04-06T16:01:22.688Z,27.73
2019-04-06T16:04:13.466Z,26.67
2019-04-06T16:07:10.290Z,26.60
2019-04-06T16:10:16.603Z,28.13
2019-04-06T16:13:08.945Z,28.20
2019-04-06T16:16:04.295Z,30.37
2019-04-06T16:21:53.758Z,30.87
2019-04-06T16:24:40.752Z,32.50
2019-04-06T16:27:39.954Z,35.50
2019-04-06T16:30:37.481Z,38.23
2019-04-06T16:33:34.537Z,33.70
2019-04-06T16:36:18.786Z,28.80
2019-04-06T16:39:02.757Z,30.23
2019-04-06T16:41:58.681Z,31.20
2019-04-06T16:45:06.259Z,32.07
2019-04-06T16:47:52.939Z,34.87
2019-04-06T16:50:39.081Z,37.87
2019-04-06T16:53:32.973Z,54.40
2019-04-06T16:56:21.000Z,50.70
2019-04-06T16:59:13.192Z,55.77
2019-04-06T17:02:03.284Z,52.70
2019-04-06T17:05:25.924Z,56.63
2019-04-06T17:08:27.488Z,50.00
2019-04-06T17:11:36.004Z,39.93
2019-04-06T17:14:26.261Z,39.93
2019-04-06T17:17:11.871Z,39.13
2019-04-06T17:20:02.455Z,38.83
2019-04-06T17:22:48.404Z,40.70
2019-04-06T17:25:51.935Z,40.83
2019-04-06T17:28:52.970Z,42.23
2019-04-06T17:31:49.296Z,43.10
2019-04-06T17:34:56.716Z,48.00
2019-04-06T17:37:49.934Z,46.07
2019-04-06T17:40:43.684Z,46.93
2019-04-06T17:43:52.984Z,55.90
2019-04-06T17:46:57.661Z,47.93
2019-04-06T17:50:02.241Z,41.37
2019-04-06T17:52:57.288Z,35.50
2019-04-06T17:55:52.294Z,32.87
2019-04-06T17:59:02.345Z,32.83
2019-04-06T18:01:59.844Z,33.57
2019-04-06T18:05:02.377Z,35.23
2019-04-06T18:07:56.899Z,34.93
2019-04-06T18:10:51.267Z,34.20
2019-04-06T18:13:41.260Z,33.37
2019-04-06T18:16:13.788Z,38.40
2019-04-06T18:18:49.874Z,40.07
2019-04-06T18:21:24.511Z,38.27
2019-04-06T18:23:58.666Z,43.70
2019-04-06T18:26:30.754Z,45.87
2019-04-06T18:29:05.098Z,44.43
2019-04-06T18:32:03.749Z,44.13
2019-04-06T18:34:36.627Z,47.40
2019-04-06T18:37:36.201Z,48.20
2019-04-06T18:40:22.637Z,43.57
2019-04-06T18:42:56.290Z,34.43
2019-04-06T18:45:38.958Z,34.20
2019-04-06T18:48:13.736Z,37.03
2019-04-06T18:50:46.794Z,40.73
2019-04-06T18:53:20.433Z,38.90
2019-04-06T18:55:53.805Z,36.10
2019-04-06T18:58:28.099Z,37.27
2019-04-06T19:01:02.268Z,36.27
2019-04-06T19:03:37.807Z,40.23
2019-04-06T19:06:10.574Z,41.17
2019-04-06T19:08:43.068Z,43.97
2019-04-06T19:11:16.413Z,50.67
2019-04-06T19:13:49.928Z,55.80
2019-04-06T19:16:22.843Z,65.37
2019-04-06T19:18:58.011Z,62.73
2019-04-06T19:21:31.457Z,56.93
2019-04-06T19:24:04.614Z,55.80
2019-04-06T19:26:37.856Z,53.13
2019-04-06T19:29:11.281Z,52.90
2019-04-06T19:31:46.023Z,51.13
2019-04-06T19:34:19.680Z,58.90
2019-04-06T19:36:53.173Z,59.60
2019-04-06T19:39:26.333Z,58.00
2019-04-06T19:42:00.086Z,56.57
2019-04-06T19:44:33.505Z,56.50
2019-04-06T19:47:06.473Z,58.87
2019-04-06T19:49:39.930Z,55.97
2019-04-06T19:52:13.956Z,48.50
2019-04-06T19:54:47.376Z,48.20
2019-04-06T19:57:21.412Z,45.53
2019-04-06T19:59:57.226Z,45.83
2019-04-06T20:02:29.684Z,43.43
2019-04-06T20:05:02.878Z,42.90
2019-04-06T20:07:36.695Z,43.20
2019-04-06T20:10:12.817Z,42.07
2019-04-06T20:12:46.990Z,39.77
2019-04-06T20:15:20.238Z,42.37
2019-04-06T20:17:55.193Z,42.43
2019-04-06T20:20:28.033Z,45.03
2019-04-06T20:23:01.739Z,43.53
2019-04-06T20:25:36.453Z,41.70
2019-04-06T20:28:10.120Z,46.43
2019-04-06T20:30:44.144Z,46.77
2019-04-06T20:33:19.001Z,45.70
2019-04-06T20:36:02.466Z,44.03
2019-04-06T20:38:37.266Z,44.60
2019-04-06T20:41:12.060Z,43.40
2019-04-06T20:43:45.320Z,41.77
2019-04-06T20:46:20.481Z,43.43
2019-04-06T20:48:54.472Z,43.30
2019-04-06T20:51:30.105Z,43.60
2019-04-06T20:54:04.306Z,43.67
2019-04-06T20:56:37.131Z,46.03
2019-04-06T20:59:13.121Z,45.47
2019-04-06T21:01:45.163Z,45.57
2019-04-06T21:04:18.301Z,45.63
2019-04-06T21:06:51.641Z,47.43
2019-04-06T21:09:26.777Z,47.73
2019-04-06T21:12:02.456Z,46.97
2019-04-06T21:14:36.217Z,48.43
2019-04-06T21:17:09.291Z,46.17
2019-04-06T21:19:43.657Z,48.10
2019-04-06T21:22:17.253Z,49.60
2019-04-06T21:24:50.825Z,50.37
2019-04-06T21:27:24.893Z,52.10
2019-04-06T21:29:57.413Z,51.13
2019-04-06T21:32:31.057Z,53.53
2019-04-06T21:35:05.425Z,53.40
2019-04-06T21:37:38.572Z,53.70
2019-04-06T21:40:11.936Z,56.23
2019-04-06T21:42:45.994Z,54.57
2019-04-06T21:45:25.122Z,55.43
2019-04-06T21:47:59.461Z,55.03
2019-04-06T21:50:34.178Z,52.73
2019-04-06T21:53:25.401Z,52.80
2019-04-06T21:56:03.932Z,51.33
2019-04-06T21:58:34.531Z,54.93
2019-04-06T22:01:09.059Z,54.27
2019-04-06T22:03:41.823Z,55.03
2019-04-06T22:06:14.326Z,55.83
2019-04-06T22:08:47.235Z,57.23
2019-04-06T22:11:20.339Z,59.80
2019-04-06T22:13:57.861Z,59.10
2019-04-06T22:16:32.509Z,59.40
2019-04-06T22:19:05.963Z,60.53
2019-04-06T22:21:39.721Z,60.50
2019-04-06T22:24:12.200Z,59.60
2019-04-06T22:26:46.017Z,57.93
2019-04-06T22:29:20.636Z,58.30
2019-04-06T22:31:53.803Z,60.07
2019-04-06T22:34:36.427Z,58.10
2019-04-06T22:37:00.886Z,56.03
2019-04-06T22:39:34.414Z,58.70
2019-04-06T22:42:06.812Z,56.90
2019-04-06T22:44:40.275Z,57.07
2019-04-06T22:47:14.122Z,60.23
2019-04-06T22:49:46.648Z,56.60
2019-04-06T22:52:20.547Z,55.43
2019-04-06T22:54:54.265Z,55.63
2019-04-06T22:57:26.732Z,56.03
2019-04-06T22:59:59.696Z,53.53
2019-04-06T23:02:41.217Z,53.13
2019-04-06T23:05:38.679Z,51.93
2019-04-06T23:08:13.541Z,55.13
2019-04-06T23:10:46.807Z,61.40
2019-04-06T23:13:21.461Z,54.30
2019-04-06T23:15:54.234Z,56.60
2019-04-06T23:18:28.513Z,54.77
2019-04-06T23:21:02.969Z,53.57
2019-04-06T23:23:37.165Z,54.37
2019-04-06T23:26:28.673Z,52.70
2019-04-06T23:29:03.510Z,50.93
2019-04-06T23:31:37.098Z,52.03
2019-04-06T23:34:11.694Z,52.63
2019-04-06T23:36:45.262Z,50.17
2019-04-06T23:39:20.295Z,49.13
2019-04-06T23:41:54.088Z,50.17
2019-04-06T23:44:27.612Z,49.73
2019-04-06T23:46:59.782Z,49.47
2019-04-06T23:49:34.109Z,50.77
2019-04-06T23:52:07.042Z,52.23
2019-04-06T23:54:42.020Z,50.07
2019-04-06T23:57:15.147Z,51.00
2019-04-06T23:59:47.788Z,47.90
